createdAt,value
2023-05-22T00:00:27.904Z,86.60
2023-05-22T00:02:54.906Z,86.60
2023-05-22T00:05:22.152Z,86.70
2023-05-22T00:07:49.615Z,86.80
2023-05-22T00:10:16.922Z,86.70
2023-05-22T00:12:43.867Z,86.70
2023-05-22T00:15:11.899Z,86.70
2023-05-22T00:17:38.832Z,86.90
2023-05-22T00:20:11.080Z,87.20
2023-05-22T00:22:38.170Z,87.40
2023-05-22T00:25:05.988Z,87.50
2023-05-22T00:27:36.094Z,87.60
2023-05-22T00:30:03.710Z,87.60
2023-05-22T00:32:30.645Z,87.60
2023-05-22T00:34:57.486Z,87.70
2023-05-22T00:37:25.602Z,87.80
2023-05-22T00:39:52.364Z,88.10
2023-05-22T00:42:19.339Z,88.40
2023-05-22T00:44:49.030Z,88.60
2023-05-22T00:47:16.177Z,88.90
2023-05-22T00:49:44.063Z,89.00
2023-05-22T00:52:12.920Z,89.20
2023-05-22T00:54:39.878Z,89.70
2023-05-22T00:57:07.330Z,89.70
2023-05-22T00:59:35.741Z,90.00
2023-05-22T01:02:03.341Z,90.00
2023-05-22T01:04:32.897Z,90.10
2023-05-22T01:07:02.997Z,90.20
2023-05-22T01:09:32.023Z,90.30
2023-05-22T01:12:10.804Z,90.40
2023-05-22T01:14:53.629Z,90.60
2023-05-22T01:17:28.879Z,90.60
2023-05-22T01:20:23.653Z,90.50
2023-05-22T01:23:13.525Z,90.70
2023-05-22T01:26:03.634Z,90.90
2023-05-22T01:29:07.742Z,90.90
2023-05-22T01:31:40.514Z,91.00
2023-05-22T01:34:13.844Z,91.00
2023-05-22T01:36:46.331Z,91.00
2023-05-22T01:39:14.664Z,91.00
2023-05-22T01:41:42.027Z,91.10
2023-05-22T01:44:08.868Z,91.00
2023-05-22T01:46:36.581Z,91.10
2023-05-22T01:49:03.726Z,91.10
2023-05-22T01:51:54.636Z,91.10
2023-05-22T01:54:36.832Z,91.10
2023-05-22T01:57:13.830Z,91.00
2023-05-22T01:59:45.594Z,91.00
2023-05-22T02:02:16.412Z,91.10
2023-05-22T02:04:50.640Z,91.00
2023-05-22T02:07:21.265Z,91.00
2023-05-22T02:09:50.825Z,90.90
2023-05-22T02:12:18.431Z,90.90
2023-05-22T02:14:46.396Z,90.90
2023-05-22T02:17:14.894Z,91.00
2023-05-22T02:19:41.721Z,91.10
2023-05-22T02:22:10.011Z,91.00
2023-05-22T02:24:38.191Z,91.00
2023-05-22T02:27:08.750Z,90.90
2023-05-22T02:29:35.863Z,91.00
2023-05-22T02:32:02.831Z,91.00
2023-05-22T02:34:34.195Z,91.00
2023-05-22T02:37:05.400Z,91.00
2023-05-22T02:39:32.271Z,91.00
2023-05-22T02:42:01.549Z,91.00
2023-05-22T02:44:28.330Z,91.10
2023-05-22T02:46:55.592Z,91.00
2023-05-22T02:49:22.752Z,91.00
2023-05-22T02:51:51.859Z,91.00
2023-05-22T02:54:18.838Z,91.10
2023-05-22T02:56:46.066Z,91.20
2023-05-22T02:59:14.989Z,91.30
2023-05-22T03:01:42.056Z,91.40
2023-05-22T03:04:08.971Z,91.50
2023-05-22T03:06:37.340Z,91.50
2023-05-22T03:09:05.308Z,91.60
2023-05-22T03:11:32.554Z,91.70
2023-05-22T03:13:59.428Z,91.80
2023-05-22T03:16:26.928Z,91.80
2023-05-22T03:19:12.122Z,91.70
2023-05-22T03:21:40.854Z,91.80
2023-05-22T03:24:08.180Z,91.80
2023-05-22T03:26:35.043Z,91.90
2023-05-22T03:29:02.921Z,91.90
2023-05-22T03:31:33.157Z,91.90
2023-05-22T03:34:00.962Z,92.00
2023-05-22T03:36:28.719Z,92.00
2023-05-22T03:38:56.455Z,92.10
2023-05-22T03:41:23.252Z,92.10
2023-05-22T03:43:50.115Z,92.10
2023-05-22T03:46:16.942Z,92.10
2023-05-22T03:48:43.878Z,92.10
2023-05-22T03:51:10.865Z,92.20
2023-05-22T03:53:37.900Z,92.10
2023-05-22T03:56:04.872Z,92.20
2023-05-22T03:58:32.251Z,92.20
2023-05-22T04:01:01.386Z,92.20
2023-05-22T04:03:28.820Z,92.30
2023-05-22T04:05:56.889Z,92.40
2023-05-22T04:08:24.025Z,92.40
2023-05-22T04:10:51.027Z,92.40
2023-05-22T04:13:20.042Z,92.40
2023-05-22T04:15:47.186Z,92.40
2023-05-22T04:18:14.638Z,92.40
2023-05-22T04:20:43.046Z,92.40
2023-05-22T04:23:11.430Z,92.50
2023-05-22T04:25:38.244Z,92.50
2023-05-22T04:28:06.246Z,92.60
2023-05-22T04:30:40.512Z,92.60
2023-05-22T04:33:08.643Z,92.70
2023-05-22T04:35:36.256Z,92.70
2023-05-22T04:38:03.812Z,93.00
2023-05-22T04:40:33.489Z,92.80
2023-05-22T04:43:01.713Z,92.80
2023-05-22T04:45:28.929Z,92.90
2023-05-22T04:47:56.629Z,92.90
2023-05-22T04:50:24.217Z,92.90
2023-05-22T04:52:51.752Z,93.00
2023-05-22T04:55:20.433Z,93.00
2023-05-22T04:57:47.492Z,93.00
2023-05-22T05:00:16.587Z,93.00
2023-05-22T05:02:43.540Z,93.10
2023-05-22T05:05:11.795Z,93.10
2023-05-22T05:07:43.653Z,93.10
2023-05-22T05:10:11.069Z,93.20
2023-05-22T05:12:37.900Z,93.10
2023-05-22T05:15:05.200Z,93.10
2023-05-22T05:17:32.390Z,93.20
2023-05-22T05:20:00.133Z,93.20
2023-05-22T05:22:27.008Z,93.20
2023-05-22T05:24:53.752Z,93.20
2023-05-22T05:27:21.058Z,93.20
2023-05-22T05:29:48.252Z,93.20
2023-05-22T05:32:15.766Z,93.20
2023-05-22T05:34:42.913Z,93.10
2023-05-22T05:37:10.070Z,93.10
2023-05-22T05:39:36.862Z,93.10
2023-05-22T05:42:05.398Z,93.10
2023-05-22T05:44:32.645Z,93.20
2023-05-22T05:46:59.909Z,93.20
2023-05-22T05:49:27.144Z,93.20
2023-05-22T05:51:54.483Z,93.20
2023-05-22T05:54:21.806Z,93.20
2023-05-22T05:56:49.798Z,93.20
2023-05-22T05:59:16.774Z,93.20
2023-05-22T06:01:46.106Z,93.20
2023-05-22T06:04:16.007Z,93.20
2023-05-22T06:06:46.839Z,93.20
2023-05-22T06:09:13.868Z,93.20
2023-05-22T06:11:40.642Z,93.20
2023-05-22T06:14:08.998Z,93.30
2023-05-22T06:16:43.957Z,93.40
2023-05-22T06:19:11.434Z,93.40
2023-05-22T06:21:38.418Z,93.40
2023-05-22T06:24:05.968Z,93.50
2023-05-22T06:26:33.477Z,93.50
2023-05-22T06:29:00.941Z,93.50
2023-05-22T06:31:28.274Z,93.50
2023-05-22T06:33:55.624Z,93.60
2023-05-22T06:36:24.530Z,93.50
2023-05-22T06:38:52.005Z,93.60
2023-05-22T06:41:18.853Z,93.70
2023-05-22T06:43:45.885Z,94.10
2023-05-22T06:46:13.397Z,93.90
2023-05-22T06:48:41.746Z,93.90
2023-05-22T06:51:11.934Z,93.90
2023-05-22T06:53:40.102Z,93.90
2023-05-22T06:56:09.798Z,93.90
2023-05-22T06:58:39.562Z,93.90
2023-05-22T07:01:07.280Z,93.90
2023-05-22T07:03:35.293Z,93.90
2023-05-22T07:06:03.722Z,93.90
2023-05-22T07:08:31.076Z,93.90
2023-05-22T07:10:58.323Z,93.90
2023-05-22T07:13:25.075Z,93.90
2023-05-22T07:15:52.138Z,93.90
2023-05-22T07:18:19.169Z,93.90
2023-05-22T07:20:46.281Z,93.90
2023-05-22T07:23:13.103Z,93.90
2023-05-22T07:25:40.048Z,93.90
2023-05-22T07:28:09.237Z,93.90
2023-05-22T07:30:38.220Z,93.80
2023-05-22T07:33:05.587Z,93.80
2023-05-22T07:35:32.696Z,93.80
2023-05-22T07:37:59.543Z,93.90
2023-05-22T07:40:28.828Z,93.80
2023-05-22T07:42:57.337Z,93.70
2023-05-22T07:45:24.517Z,93.70
2023-05-22T07:47:53.326Z,93.70
2023-05-22T07:50:21.122Z,93.60
2023-05-22T07:52:48.245Z,93.60
2023-05-22T07:55:15.219Z,93.60
2023-05-22T07:57:44.208Z,93.60
2023-05-22T08:00:13.819Z,93.80
2023-05-22T08:02:41.856Z,93.30
2023-05-22T08:05:09.876Z,93.10
2023-05-22T08:07:38.573Z,92.90
2023-05-22T08:10:13.744Z,92.90
2023-05-22T08:12:41.140Z,92.50
2023-05-22T08:15:08.428Z,92.20
2023-05-22T08:17:37.960Z,92.00
2023-05-22T08:20:08.161Z,91.70
2023-05-22T08:22:38.338Z,91.50
2023-05-22T08:25:09.003Z,91.30
2023-05-22T08:27:35.969Z,91.10
2023-05-22T08:30:05.337Z,91.00
2023-05-22T08:32:32.513Z,90.60
2023-05-22T08:35:01.608Z,90.30
2023-05-22T08:37:31.181Z,90.00
2023-05-22T08:39:58.214Z,89.40
2023-05-22T08:42:25.697Z,89.00
2023-05-22T08:44:55.713Z,89.20
2023-05-22T08:47:28.147Z,89.10
2023-05-22T08:49:58.397Z,88.90
2023-05-22T08:52:51.244Z,88.40
2023-05-22T08:55:19.693Z,87.60
2023-05-22T08:57:49.761Z,87.10
2023-05-22T09:00:17.696Z,86.60
2023-05-22T09:02:45.542Z,86.70
2023-05-22T09:05:13.186Z,86.40
2023-05-22T09:07:41.565Z,86.00
2023-05-22T09:10:08.775Z,85.00
2023-05-22T09:12:36.226Z,84.80
2023-05-22T09:15:10.785Z,84.70
2023-05-22T09:17:44.357Z,84.70
2023-05-22T09:20:16.545Z,84.30
2023-05-22T09:22:43.564Z,84.10
2023-05-22T09:25:17.792Z,83.70
2023-05-22T09:27:54.406Z,82.50
2023-05-22T09:30:21.561Z,81.60
2023-05-22T09:32:55.534Z,81.50
2023-05-22T09:35:22.734Z,81.50
2023-05-22T09:37:52.124Z,81.50
2023-05-22T09:40:19.119Z,81.00
2023-05-22T09:42:46.134Z,79.20
2023-05-22T09:45:13.515Z,79.30
2023-05-22T09:47:40.853Z,78.90
2023-05-22T09:50:10.993Z,78.10
2023-05-22T09:52:38.555Z,77.10
2023-05-22T09:55:07.277Z,76.00
2023-05-22T09:57:46.269Z,75.60
2023-05-22T10:00:15.980Z,74.90
2023-05-22T10:02:46.318Z,73.70
2023-05-22T10:05:23.649Z,73.10
2023-05-22T10:07:52.329Z,71.00
2023-05-22T10:10:23.019Z,70.20
2023-05-22T10:12:56.412Z,70.80
2023-05-22T10:15:23.762Z,71.10
2023-05-22T10:17:50.921Z,70.20
2023-05-22T10:20:17.864Z,68.90
2023-05-22T10:22:46.905Z,68.00
2023-05-22T10:25:13.795Z,67.20
2023-05-22T10:27:41.772Z,66.50
2023-05-22T10:30:53.680Z,66.50
2023-05-22T10:33:27.905Z,67.00
2023-05-22T10:36:19.776Z,67.60
2023-05-22T10:39:05.094Z,67.60
2023-05-22T10:41:32.540Z,67.60
2023-05-22T10:43:59.594Z,67.10
2023-05-22T10:46:26.592Z,67.00
2023-05-22T10:48:58.116Z,65.20
2023-05-22T10:51:26.904Z,64.30
2023-05-22T10:54:05.556Z,65.20
2023-05-22T10:56:36.224Z,63.70
2023-05-22T10:59:08.604Z,63.70
2023-05-22T11:01:37.841Z,63.30
2023-05-22T11:04:07.083Z,63.20
2023-05-22T11:07:02.903Z,63.50
2023-05-22T11:09:34.575Z,63.00
2023-05-22T11:12:22.629Z,63.10
2023-05-22T11:14:56.823Z,62.60
2023-05-22T11:17:31.540Z,61.50
2023-05-22T11:20:10.681Z,62.40
2023-05-22T11:22:44.153Z,61.50
2023-05-22T11:25:20.288Z,60.80
2023-05-22T11:27:48.062Z,60.20
2023-05-22T11:30:16.291Z,60.20
2023-05-22T11:32:45.479Z,60.10
2023-05-22T11:35:17.235Z,59.30
2023-05-22T11:37:44.916Z,58.30
2023-05-22T11:40:14.973Z,57.80
2023-05-22T11:42:42.264Z,57.30
2023-05-22T11:45:10.123Z,56.90
2023-05-22T11:47:37.817Z,56.70
2023-05-22T11:50:06.983Z,56.70
2023-05-22T11:52:35.650Z,55.70
2023-05-22T11:55:22.982Z,55.20
2023-05-22T11:57:50.097Z,54.50
2023-05-22T12:00:18.107Z,54.20
2023-05-22T12:02:46.638Z,54.00
2023-05-22T12:05:14.068Z,54.60
2023-05-22T12:07:41.381Z,54.50
2023-05-22T12:10:09.604Z,53.70
2023-05-22T12:12:37.530Z,53.70
2023-05-22T12:15:08.053Z,53.00
2023-05-22T12:17:37.740Z,52.60
2023-05-22T12:20:08.705Z,53.20
2023-05-22T12:22:43.264Z,53.70
2023-05-22T12:25:16.585Z,53.70
2023-05-22T12:27:45.910Z,54.10
2023-05-22T12:30:15.501Z,53.90
2023-05-22T12:32:47.998Z,53.70
2023-05-22T12:35:19.370Z,53.60
2023-05-22T12:37:51.309Z,53.60
2023-05-22T12:40:18.737Z,53.30
2023-05-22T12:42:45.873Z,53.70
2023-05-22T12:45:13.525Z,54.00
2023-05-22T12:47:41.834Z,53.90
2023-05-22T12:50:10.630Z,54.00
2023-05-22T12:52:37.584Z,54.40
2023-05-22T12:55:05.776Z,55.00
2023-05-22T12:57:33.683Z,55.50
2023-05-22T13:00:00.375Z,56.00
2023-05-22T13:02:28.506Z,56.80
2023-05-22T13:04:55.363Z,57.10
2023-05-22T13:07:22.391Z,57.50
2023-05-22T13:09:49.236Z,57.50
2023-05-22T13:12:16.487Z,57.60
2023-05-22T13:14:43.582Z,57.80
2023-05-22T13:17:11.186Z,58.30
2023-05-22T13:19:38.288Z,58.80
2023-05-22T13:22:07.495Z,59.20
2023-05-22T13:24:34.749Z,59.40
2023-05-22T13:27:01.957Z,59.80
2023-05-22T13:29:28.820Z,60.20
2023-05-22T13:31:55.628Z,60.30
2023-05-22T13:34:22.587Z,60.30
2023-05-22T13:36:49.914Z,60.30
2023-05-22T13:39:16.872Z,60.30
2023-05-22T13:41:44.642Z,60.10
2023-05-22T13:44:11.801Z,59.70
2023-05-22T13:46:40.779Z,59.40
2023-05-22T13:49:08.177Z,59.20
2023-05-22T13:51:34.989Z,59.40
2023-05-22T13:54:03.221Z,59.40
2023-05-22T13:56:30.272Z,59.60
2023-05-22T13:58:59.457Z,59.50
2023-05-22T14:01:26.556Z,58.80
2023-05-22T14:03:53.586Z,57.90
2023-05-22T14:06:20.455Z,56.80
2023-05-22T14:08:47.307Z,56.40
2023-05-22T14:11:14.291Z,55.90
2023-05-22T14:13:41.030Z,55.50
2023-05-22T14:16:07.922Z,54.90
2023-05-22T14:18:34.812Z,54.70
2023-05-22T14:21:03.924Z,55.10
2023-05-22T14:23:31.822Z,54.90
2023-05-22T14:25:58.846Z,54.50
2023-05-22T14:28:26.237Z,54.10
2023-05-22T14:30:55.628Z,53.90
2023-05-22T14:33:22.673Z,52.80
2023-05-22T14:35:51.649Z,52.50
2023-05-22T14:38:19.084Z,51.90
2023-05-22T14:40:45.918Z,51.80
2023-05-22T14:43:13.015Z,51.50
2023-05-22T14:45:40.195Z,51.60
2023-05-22T14:48:11.043Z,51.00
2023-05-22T14:50:38.046Z,50.70
2023-05-22T14:53:04.804Z,51.10
2023-05-22T14:55:32.036Z,50.60
2023-05-22T14:57:59.203Z,50.00
2023-05-22T15:00:26.756Z,49.60
2023-05-22T15:02:53.697Z,49.10
2023-05-22T15:05:20.797Z,50.00
2023-05-22T15:07:49.798Z,48.90
2023-05-22T15:10:18.193Z,49.10
2023-05-22T15:12:45.128Z,48.60
2023-05-22T15:15:11.962Z,48.20
2023-05-22T15:17:40.780Z,48.40
2023-05-22T15:20:10.557Z,47.90
2023-05-22T15:22:37.563Z,47.60
2023-05-22T15:25:06.580Z,47.50
2023-05-22T15:27:35.616Z,47.60
2023-05-22T15:30:03.298Z,47.40
2023-05-22T15:32:32.557Z,47.30
2023-05-22T15:34:59.478Z,47.30
2023-05-22T15:37:26.770Z,47.50
2023-05-22T15:39:53.703Z,47.30
2023-05-22T15:42:20.543Z,46.80
2023-05-22T15:44:47.392Z,46.40
2023-05-22T15:47:14.945Z,46.10
2023-05-22T15:49:41.794Z,46.20
2023-05-22T15:52:09.770Z,45.90
2023-05-22T15:54:36.775Z,45.70
2023-05-22T15:57:03.658Z,45.60
2023-05-22T15:59:30.852Z,45.60
2023-05-22T16:01:57.748Z,45.80
2023-05-22T16:04:24.786Z,45.70
2023-05-22T16:06:51.844Z,45.50
2023-05-22T16:09:19.867Z,45.40
2023-05-22T16:11:47.008Z,45.00
2023-05-22T16:14:13.920Z,44.50
2023-05-22T16:16:41.088Z,44.60
2023-05-22T16:19:08.194Z,44.20
2023-05-22T16:21:36.385Z,44.00
2023-05-22T16:24:06.515Z,44.20
2023-05-22T16:26:33.397Z,44.20
2023-05-22T16:29:00.306Z,44.20
2023-05-22T16:31:27.260Z,44.20
2023-05-22T16:33:54.341Z,44.30
2023-05-22T16:36:21.432Z,44.60
2023-05-22T16:38:48.211Z,44.60
2023-05-22T16:41:15.076Z,44.70
2023-05-22T16:43:42.135Z,44.50
2023-05-22T16:46:08.941Z,44.80
2023-05-22T16:48:35.951Z,44.50
2023-05-22T16:51:03.006Z,44.20
2023-05-22T16:53:29.858Z,44.30
2023-05-22T16:55:57.095Z,44.20
2023-05-22T16:58:25.573Z,43.70
2023-05-22T17:00:53.194Z,43.80
2023-05-22T17:03:20.418Z,43.80
2023-05-22T17:05:47.738Z,44.10
2023-05-22T17:08:15.054Z,44.60
2023-05-22T17:10:41.844Z,44.60
2023-05-22T17:13:09.144Z,44.90
2023-05-22T17:15:36.061Z,45.10
2023-05-22T17:18:03.323Z,45.40
2023-05-22T17:20:34.351Z,45.70
2023-05-22T17:23:01.175Z,46.10
2023-05-22T17:25:28.370Z,46.40
2023-05-22T17:27:55.237Z,47.00
2023-05-22T17:30:22.142Z,47.50
2023-05-22T17:32:50.251Z,47.90
2023-05-22T17:35:18.216Z,48.40
2023-05-22T17:37:45.288Z,48.60
2023-05-22T17:40:12.287Z,48.80
2023-05-22T17:42:39.437Z,49.40
2023-05-22T17:45:08.546Z,49.90
2023-05-22T17:47:36.021Z,50.30
2023-05-22T17:50:02.807Z,50.50
2023-05-22T17:52:29.606Z,51.00
2023-05-22T17:54:56.435Z,51.30
2023-05-22T17:57:23.323Z,51.80
2023-05-22T17:59:50.109Z,52.20
2023-05-22T18:02:17.159Z,52.50
2023-05-22T18:04:44.359Z,52.70
2023-05-22T18:07:14.260Z,52.80
2023-05-22T18:09:41.168Z,53.10
2023-05-22T18:12:30.232Z,53.20
2023-05-22T18:14:58.301Z,53.60
2023-05-22T18:17:25.162Z,53.70
2023-05-22T18:19:51.985Z,54.00
2023-05-22T18:22:18.932Z,54.10
2023-05-22T18:24:46.123Z,54.30
2023-05-22T18:27:14.256Z,54.70
2023-05-22T18:29:41.206Z,54.90
2023-05-22T18:32:09.632Z,55.10
2023-05-22T18:34:37.648Z,55.40
2023-05-22T18:37:04.720Z,55.50
2023-05-22T18:39:31.453Z,55.60
2023-05-22T18:41:58.903Z,55.80
2023-05-22T18:44:25.956Z,55.90
2023-05-22T18:46:52.961Z,56.20
2023-05-22T18:49:20.062Z,56.50
2023-05-22T18:51:47.017Z,56.60
2023-05-22T18:54:13.785Z,56.90
2023-05-22T18:56:40.896Z,57.10
2023-05-22T18:59:07.809Z,57.40
2023-05-22T19:01:35.101Z,57.60
2023-05-22T19:04:02.160Z,57.80
2023-05-22T19:06:30.917Z,58.00
2023-05-22T19:08:57.874Z,58.20
2023-05-22T19:11:24.809Z,58.50
2023-05-22T19:13:51.854Z,58.70
2023-05-22T19:16:18.786Z,59.10
2023-05-22T19:18:47.293Z,59.10
2023-05-22T19:21:14.395Z,59.30
2023-05-22T19:23:41.301Z,59.60
2023-05-22T19:26:08.117Z,59.80
2023-05-22T19:28:34.925Z,60.00
2023-05-22T19:31:05.357Z,60.20
2023-05-22T19:33:32.548Z,60.40
2023-05-22T19:35:59.736Z,60.50
2023-05-22T19:38:26.835Z,60.60
2023-05-22T19:40:55.072Z,61.00
2023-05-22T19:43:21.961Z,61.10
2023-05-22T19:45:49.252Z,61.20
2023-05-22T19:48:16.342Z,61.40
2023-05-22T19:50:43.506Z,61.60
2023-05-22T19:53:10.661Z,61.80
2023-05-22T19:55:37.567Z,61.90
2023-05-22T19:58:04.869Z,62.10
2023-05-22T20:00:31.994Z,62.50
2023-05-22T20:02:59.076Z,62.70
2023-05-22T20:05:26.122Z,63.10
2023-05-22T20:07:53.102Z,63.50
2023-05-22T20:10:20.040Z,64.40
2023-05-22T20:12:48.288Z,64.10
2023-05-22T20:15:18.132Z,64.50
2023-05-22T20:17:52.258Z,65.00
2023-05-22T20:20:20.573Z,65.20
2023-05-22T20:22:47.773Z,65.50
2023-05-22T20:25:14.614Z,66.20
2023-05-22T20:27:41.734Z,66.90
2023-05-22T20:30:11.481Z,67.50
2023-05-22T20:32:42.783Z,68.00
2023-05-22T20:35:11.050Z,68.70
2023-05-22T20:37:38.502Z,69.40
2023-05-22T20:40:06.505Z,70.00
2023-05-22T20:42:33.781Z,70.70
2023-05-22T20:45:02.758Z,71.10
2023-05-22T20:47:30.156Z,71.50
2023-05-22T20:49:57.906Z,71.90
2023-05-22T20:52:25.643Z,72.30
2023-05-22T20:54:52.763Z,72.90
2023-05-22T20:57:19.646Z,73.30
2023-05-22T20:59:46.458Z,73.50
2023-05-22T21:02:13.355Z,73.60
2023-05-22T21:04:40.129Z,73.80
2023-05-22T21:07:08.305Z,73.90
2023-05-22T21:09:35.193Z,73.90
2023-05-22T21:12:03.958Z,73.90
2023-05-22T21:14:31.969Z,73.70
2023-05-22T21:16:59.941Z,73.60
2023-05-22T21:19:27.129Z,73.70
2023-05-22T21:21:54.190Z,73.60
2023-05-22T21:24:21.798Z,73.70
2023-05-22T21:26:49.302Z,73.80
2023-05-22T21:29:16.341Z,73.90
2023-05-22T21:31:43.439Z,73.90
2023-05-22T21:34:10.425Z,74.10
2023-05-22T21:36:38.865Z,74.30
2023-05-22T21:39:05.757Z,74.50
2023-05-22T21:41:32.706Z,75.10
2023-05-22T21:44:00.789Z,75.60
2023-05-22T21:46:27.814Z,76.10
2023-05-22T21:48:54.955Z,76.40
2023-05-22T21:51:21.982Z,76.50
2023-05-22T21:53:48.819Z,76.90
2023-05-22T21:56:15.772Z,77.10
2023-05-22T21:58:42.756Z,77.30
2023-05-22T22:01:10.129Z,77.60
2023-05-22T22:03:38.902Z,77.80
2023-05-22T22:06:06.552Z,78.00
2023-05-22T22:08:33.499Z,78.30
2023-05-22T22:11:00.713Z,78.70
2023-05-22T22:13:27.751Z,79.10
2023-05-22T22:15:56.273Z,79.70
2023-05-22T22:18:23.486Z,80.00
2023-05-22T22:20:54.243Z,80.20
2023-05-22T22:23:22.012Z,80.30
2023-05-22T22:25:49.433Z,80.60
2023-05-22T22:28:16.652Z,81.00
2023-05-22T22:30:43.383Z,81.20
2023-05-22T22:33:11.885Z,81.40
2023-05-22T22:35:39.826Z,81.60
2023-05-22T22:38:06.894Z,81.80
2023-05-22T22:40:33.821Z,82.50
2023-05-22T22:43:00.781Z,82.10
2023-05-22T22:45:27.687Z,82.40
2023-05-22T22:47:56.743Z,82.70
2023-05-22T22:50:26.526Z,83.10
2023-05-22T22:52:53.779Z,83.10
2023-05-22T22:55:21.272Z,83.10
2023-05-22T22:57:50.227Z,83.10
2023-05-22T23:00:18.059Z,83.20
2023-05-22T23:02:47.665Z,83.20
2023-05-22T23:05:16.838Z,83.50
2023-05-22T23:07:46.817Z,83.80
2023-05-22T23:10:15.017Z,83.80
2023-05-22T23:12:41.884Z,84.10
2023-05-22T23:15:11.278Z,84.00
2023-05-22T23:17:38.394Z,84.20
2023-05-22T23:20:06.104Z,84.40
2023-05-22T23:22:35.550Z,84.40
2023-05-22T23:25:02.678Z,84.40
2023-05-22T23:27:29.548Z,84.40
2023-05-22T23:29:56.444Z,84.30
2023-05-22T23:32:23.579Z,84.50
2023-05-22T23:34:50.544Z,84.40
2023-05-22T23:37:17.469Z,84.40
2023-05-22T23:39:44.421Z,84.60
2023-05-22T23:42:12.047Z,84.40
2023-05-22T23:44:38.850Z,84.40
2023-05-22T23:47:06.713Z,84.60
2023-05-22T23:49:33.981Z,84.50
2023-05-22T23:52:03.922Z,84.50
2023-05-22T23:54:30.859Z,84.60
2023-05-22T23:56:57.611Z,84.70
2023-05-22T23:59:24.612Z,84.70
